createdAt,value
2022-10-21T00:00:19.507Z,9.98
2022-10-21T00:02:46.365Z,11.23
2022-10-21T00:05:13.478Z,10.00
2022-10-21T00:07:40.403Z,9.88
2022-10-21T00:10:10.463Z,9.18
2022-10-21T00:12:38.247Z,10.77
2022-10-21T00:15:06.104Z,11.73
2022-10-21T00:17:36.729Z,13.23
2022-10-21T00:20:04.313Z,9.82
2022-10-21T00:22:31.034Z,12.70
2022-10-21T00:24:57.933Z,12.75
2022-10-21T00:27:24.702Z,11.20
2022-10-21T00:29:51.510Z,8.95
2022-10-21T00:32:18.346Z,11.60
2022-10-21T00:34:46.596Z,11.40
2022-10-21T00:37:13.874Z,11.93
2022-10-21T00:39:41.094Z,11.93
2022-10-21T00:42:15.039Z,13.75
2022-10-21T00:44:42.122Z,11.60
2022-10-21T00:47:12.890Z,11.35
2022-10-21T00:49:43.711Z,11.32
2022-10-21T00:52:15.514Z,8.68
2022-10-21T00:54:44.086Z,12.85
2022-10-21T00:57:11.450Z,11.40
2022-10-21T00:59:44.019Z,10.88
2022-10-21T01:02:10.935Z,10.20
2022-10-21T01:04:37.900Z,12.15
2022-10-21T01:07:05.275Z,13.38
2022-10-21T01:09:33.360Z,9.50
2022-10-21T01:12:02.610Z,11.38
2022-10-21T01:14:42.274Z,8.82
2022-10-21T01:17:39.854Z,9.95
2022-10-21T01:20:21.860Z,9.75
2022-10-21T01:23:12.074Z,13.70
2022-10-21T01:26:07.912Z,11.20
2022-10-21T01:28:45.662Z,12.60
2022-10-21T01:31:20.146Z,9.57
2022-10-21T01:33:54.355Z,12.20
2022-10-21T01:39:08.215Z,12.65
2022-10-21T01:41:39.926Z,10.82
2022-10-21T01:44:14.193Z,9.93
2022-10-21T01:46:46.994Z,8.80
2022-10-21T01:49:18.509Z,8.73
2022-10-21T01:51:45.467Z,12.98
2022-10-21T01:54:18.538Z,11.20
2022-10-21T01:56:46.543Z,13.77
2022-10-21T01:59:14.249Z,12.15
2022-10-21T02:01:44.024Z,13.63
2022-10-21T02:04:12.880Z,12.05
2022-10-21T02:06:40.029Z,12.27
2022-10-21T02:09:06.841Z,12.10
2022-10-21T02:11:36.438Z,13.90
2022-10-21T02:14:08.176Z,12.18
2022-10-21T02:16:38.859Z,11.57
2022-10-21T02:19:14.331Z,10.13
2022-10-21T02:21:41.640Z,12.35
2022-10-21T02:24:15.517Z,11.45
2022-10-21T02:26:42.395Z,14.13
2022-10-21T02:29:09.991Z,13.40
2022-10-21T02:32:01.163Z,11.90
2022-10-21T02:34:40.667Z,10.15
2022-10-21T02:37:17.548Z,9.40
2022-10-21T02:39:50.069Z,12.65
2022-10-21T02:42:21.124Z,13.23
2022-10-21T02:44:47.939Z,11.68
2022-10-21T02:47:15.734Z,10.77
2022-10-21T02:49:45.640Z,11.52
2022-10-21T02:52:12.450Z,10.60
2022-10-21T02:54:39.170Z,12.02
2022-10-21T02:57:05.923Z,10.30
2022-10-21T02:59:32.694Z,11.50
2022-10-21T03:01:59.463Z,12.25
2022-10-21T03:04:26.189Z,11.32
2022-10-21T03:06:55.005Z,12.82
2022-10-21T03:09:21.941Z,9.43
2022-10-21T03:11:48.683Z,11.13
2022-10-21T03:14:15.588Z,10.90
2022-10-21T03:16:42.439Z,11.73
2022-10-21T03:19:10.190Z,14.75
2022-10-21T03:21:37.026Z,12.40
2022-10-21T03:24:10.977Z,10.05
2022-10-21T03:26:52.067Z,9.93
2022-10-21T03:29:18.827Z,11.02
2022-10-21T03:31:45.558Z,13.73
2022-10-21T03:34:12.275Z,10.82
2022-10-21T03:36:39.054Z,13.07
2022-10-21T03:39:07.154Z,10.85
2022-10-21T03:41:33.875Z,10.20
2022-10-21T03:44:00.607Z,11.23
2022-10-21T03:46:27.371Z,10.70
2022-10-21T03:48:54.185Z,9.23
2022-10-21T03:51:21.062Z,14.25
2022-10-21T03:53:47.799Z,10.02
2022-10-21T03:56:15.875Z,14.23
2022-10-21T03:58:42.628Z,11.45
2022-10-21T04:01:11.909Z,11.40
2022-10-21T04:03:38.879Z,11.55
2022-10-21T04:06:05.875Z,12.88
2022-10-21T04:08:32.646Z,10.43
2022-10-21T04:10:59.429Z,10.60
2022-10-21T04:13:27.557Z,14.85
2022-10-21T04:15:57.919Z,9.35
2022-10-21T04:18:24.698Z,12.15
2022-10-21T04:20:51.462Z,12.05
2022-10-21T04:23:18.210Z,9.52
2022-10-21T04:25:45.273Z,12.88
2022-10-21T04:28:12.111Z,11.25
2022-10-21T04:30:40.424Z,13.30
2022-10-21T04:33:07.156Z,11.70
2022-10-21T04:35:33.909Z,12.07
2022-10-21T04:38:00.631Z,13.07
2022-10-21T04:40:27.580Z,12.80
2022-10-21T04:42:54.327Z,10.32
2022-10-21T04:45:21.062Z,11.90
2022-10-21T04:47:49.308Z,11.30
2022-10-21T04:50:16.265Z,12.10
2022-10-21T04:52:43.042Z,11.30
2022-10-21T04:55:10.006Z,10.95
2022-10-21T04:57:36.939Z,9.35
2022-10-21T05:00:05.059Z,9.75
2022-10-21T05:02:32.000Z,10.38
2022-10-21T05:05:00.097Z,10.98
2022-10-21T05:07:26.807Z,10.27
2022-10-21T05:09:53.543Z,12.13
2022-10-21T05:12:20.367Z,9.73
2022-10-21T05:14:47.074Z,10.40
2022-10-21T05:17:13.795Z,14.35
2022-10-21T05:19:40.597Z,18.40
2022-10-21T05:22:08.758Z,8.45
2022-10-21T05:24:35.519Z,12.55
2022-10-21T05:27:02.260Z,14.85
2022-10-21T05:29:29.002Z,10.93
2022-10-21T05:31:55.750Z,10.13
2022-10-21T05:34:22.505Z,13.63
2022-10-21T05:36:49.245Z,8.57
2022-10-21T05:39:17.355Z,10.70
2022-10-21T05:41:46.992Z,11.50
2022-10-21T05:44:15.128Z,9.23
2022-10-21T05:46:41.843Z,11.63
2022-10-21T05:49:08.905Z,10.50
2022-10-21T05:51:35.698Z,13.07
2022-10-21T05:54:02.454Z,13.13
2022-10-21T05:56:30.643Z,13.15
2022-10-21T05:58:57.484Z,12.80
2022-10-21T06:01:24.323Z,11.55
2022-10-21T06:03:51.099Z,13.10
2022-10-21T06:06:18.298Z,10.05
2022-10-21T06:08:45.365Z,12.13
2022-10-21T06:11:14.703Z,9.20
2022-10-21T06:13:43.508Z,8.80
2022-10-21T06:16:11.563Z,10.90
2022-10-21T06:18:39.227Z,12.55
2022-10-21T06:21:06.708Z,15.07
2022-10-21T06:23:33.947Z,11.77
2022-10-21T06:26:02.747Z,13.40
2022-10-21T06:28:31.501Z,13.20
2022-10-21T06:30:59.925Z,12.85
2022-10-21T06:33:27.460Z,11.85
2022-10-21T06:35:54.732Z,13.40
2022-10-21T06:38:21.540Z,11.73
2022-10-21T06:40:48.379Z,14.73
2022-10-21T06:43:15.402Z,13.32
2022-10-21T06:45:42.338Z,13.98
2022-10-21T06:48:10.589Z,14.15
2022-10-21T06:50:37.519Z,15.80
2022-10-21T06:53:04.533Z,16.00
2022-10-21T06:55:31.256Z,17.13
2022-10-21T06:57:58.992Z,15.82
2022-10-21T07:00:26.040Z,13.73
2022-10-21T07:02:52.912Z,11.60
2022-10-21T07:05:20.991Z,13.02
2022-10-21T07:07:47.742Z,13.20
2022-10-21T07:10:14.520Z,17.23
2022-10-21T07:12:41.251Z,15.13
2022-10-21T07:15:08.879Z,14.57
2022-10-21T07:17:35.828Z,17.35
2022-10-21T07:20:02.884Z,11.98
2022-10-21T07:22:30.975Z,10.60
2022-10-21T07:24:57.757Z,11.73
2022-10-21T07:27:24.530Z,14.27
2022-10-21T07:29:51.894Z,11.63
2022-10-21T07:32:18.713Z,12.35
2022-10-21T07:34:45.464Z,17.88
2022-10-21T07:37:12.259Z,11.32
2022-10-21T07:39:40.376Z,13.18
2022-10-21T07:42:07.191Z,13.75
2022-10-21T07:44:33.913Z,17.55
2022-10-21T07:47:00.677Z,12.55
2022-10-21T07:49:27.415Z,17.05
2022-10-21T07:51:54.179Z,14.18
2022-10-21T07:54:20.992Z,15.25
2022-10-21T07:56:51.485Z,14.18
2022-10-21T07:59:20.095Z,16.98
2022-10-21T08:04:16.483Z,18.27
2022-10-21T08:06:43.590Z,13.40
2022-10-21T08:09:10.610Z,11.68
2022-10-21T08:11:37.722Z,15.25
2022-10-21T08:14:08.238Z,15.93
2022-10-21T08:16:35.719Z,13.45
2022-10-21T08:19:03.532Z,14.00
2022-10-21T08:21:30.514Z,13.80
2022-10-21T08:23:57.532Z,12.30
2022-10-21T08:26:24.619Z,14.23
2022-10-21T08:28:51.409Z,12.75
2022-10-21T08:31:22.003Z,13.13
2022-10-21T08:33:49.520Z,13.95
2022-10-21T08:36:19.216Z,13.82
2022-10-21T08:38:46.607Z,13.93
2022-10-21T08:41:38.794Z,15.32
2022-10-21T08:44:10.997Z,12.68
2022-10-21T08:46:44.297Z,12.77
2022-10-21T08:49:17.574Z,11.23
2022-10-21T08:51:49.419Z,9.20
2022-10-21T08:54:20.863Z,11.75
2022-10-21T08:56:51.700Z,12.35
2022-10-21T08:59:22.390Z,10.23
2022-10-21T09:01:58.546Z,10.43
2022-10-21T09:04:33.373Z,13.20
2022-10-21T09:07:12.787Z,13.57
2022-10-21T09:09:47.846Z,14.93
2022-10-21T09:12:23.773Z,11.07
2022-10-21T09:15:17.673Z,11.15
2022-10-21T09:18:04.887Z,14.15
2022-10-21T09:20:41.994Z,10.95
2022-10-21T09:23:38.213Z,11.05
2022-10-21T09:26:11.743Z,9.32
2022-10-21T09:28:38.473Z,12.15
2022-10-21T09:31:15.560Z,12.43
2022-10-21T09:33:46.618Z,10.27
2022-10-21T09:36:17.091Z,9.13
2022-10-21T09:38:48.933Z,7.63
2022-10-21T09:41:19.576Z,9.63
2022-10-21T09:43:48.140Z,11.80
2022-10-21T09:46:16.115Z,11.52
2022-10-21T09:49:22.931Z,12.15
2022-10-21T09:51:37.878Z,10.85
2022-10-21T09:54:08.996Z,11.57
2022-10-21T09:56:41.388Z,12.27
2022-10-21T09:59:09.868Z,11.68
2022-10-21T10:01:37.858Z,13.60
2022-10-21T10:04:12.351Z,10.27
2022-10-21T10:06:40.991Z,11.60
2022-10-21T10:09:25.073Z,11.70
2022-10-21T10:11:54.674Z,12.15
2022-10-21T10:14:28.266Z,9.80
2022-10-21T10:16:55.880Z,10.00
2022-10-21T10:19:25.976Z,15.07
2022-10-21T10:22:10.397Z,10.65
2022-10-21T10:24:37.968Z,8.82
2022-10-21T10:27:06.417Z,15.80
2022-10-21T10:29:33.746Z,13.38
2022-10-21T10:32:01.619Z,12.25
2022-10-21T10:34:33.509Z,11.40
2022-10-21T10:37:04.488Z,11.50
2022-10-21T10:39:34.508Z,16.45
2022-10-21T10:42:03.043Z,20.83
2022-10-21T10:44:33.705Z,14.85
2022-10-21T10:47:03.512Z,17.27
2022-10-21T10:49:39.596Z,12.15
2022-10-21T10:52:16.220Z,12.82
2022-10-21T10:54:44.731Z,11.43
2022-10-21T10:57:15.058Z,10.25
2022-10-21T10:59:45.040Z,12.48
2022-10-21T11:02:23.292Z,11.90
2022-10-21T11:05:09.133Z,11.68
2022-10-21T11:07:40.175Z,14.80
2022-10-21T11:10:26.019Z,20.63
2022-10-21T11:12:53.354Z,9.25
2022-10-21T11:15:29.078Z,8.82
2022-10-21T11:18:17.002Z,10.20
2022-10-21T11:21:00.215Z,12.98
2022-10-21T11:23:47.479Z,11.40
2022-10-21T11:26:21.718Z,9.50
2022-10-21T11:28:55.488Z,9.82
2022-10-21T11:31:27.695Z,10.57
2022-10-21T11:34:00.578Z,11.18
2022-10-21T11:36:35.880Z,10.43
2022-10-21T11:39:30.554Z,11.50
2022-10-21T11:42:06.569Z,9.73
2022-10-21T11:44:47.551Z,12.88
2022-10-21T11:47:20.330Z,11.90
2022-10-21T11:49:58.148Z,10.35
2022-10-21T11:52:38.272Z,12.00
2022-10-21T11:55:35.134Z,10.93
2022-10-21T11:58:21.086Z,10.02
2022-10-21T12:00:58.627Z,11.52
2022-10-21T12:03:43.736Z,11.73
2022-10-21T12:06:19.741Z,8.77
2022-10-21T12:08:53.935Z,11.68
2022-10-21T12:13:52.217Z,11.75
2022-10-21T12:16:24.301Z,8.05
2022-10-21T12:18:54.270Z,9.18
2022-10-21T12:21:24.733Z,9.52
2022-10-21T12:23:57.842Z,10.52
2022-10-21T12:26:28.539Z,9.07
2022-10-21T12:29:02.090Z,6.68
2022-10-21T12:31:37.388Z,10.90
2022-10-21T12:34:05.514Z,9.07
2022-10-21T12:36:41.695Z,11.63
2022-10-21T12:39:17.140Z,8.23
2022-10-21T12:41:45.424Z,9.52
2022-10-21T12:44:23.251Z,10.13
2022-10-21T12:46:52.194Z,6.50
2022-10-21T12:49:30.911Z,7.55
2022-10-21T12:52:06.128Z,7.30
2022-10-21T12:54:41.765Z,8.80
2022-10-21T12:57:10.526Z,6.82
2022-10-21T12:59:38.899Z,10.88
2022-10-21T13:02:24.793Z,9.02
2022-10-21T13:04:54.148Z,9.05
2022-10-21T13:07:39.352Z,9.98
2022-10-21T13:10:26.207Z,8.20
2022-10-21T13:13:34.584Z,8.48
2022-10-21T13:16:17.484Z,6.68
2022-10-21T13:18:59.006Z,7.00
2022-10-21T13:21:37.182Z,8.95
2022-10-21T13:24:19.420Z,8.27
2022-10-21T13:26:51.402Z,8.05
2022-10-21T13:29:47.081Z,12.00
2022-10-21T13:32:24.420Z,9.55
2022-10-21T13:34:57.885Z,7.93
2022-10-21T13:37:28.163Z,8.45
2022-10-21T13:39:56.469Z,9.65
2022-10-21T13:42:26.223Z,7.60
2022-10-21T13:44:59.542Z,18.58
2022-10-21T13:47:29.378Z,6.20
2022-10-21T13:50:00.698Z,7.93
2022-10-21T13:52:28.411Z,9.20
2022-10-21T13:54:59.684Z,8.93
2022-10-21T13:57:33.802Z,9.65
2022-10-21T14:02:28.510Z,4.85
2022-10-21T14:04:55.266Z,10.38
2022-10-21T14:07:22.211Z,7.70
2022-10-21T14:09:52.052Z,5.28
2022-10-21T14:12:24.460Z,4.50
2022-10-21T14:14:54.204Z,3.30
2022-10-21T14:17:24.359Z,4.70
2022-10-21T14:19:53.842Z,6.32
2022-10-21T14:22:24.212Z,3.22
2022-10-21T14:24:53.694Z,4.25
2022-10-21T14:27:25.248Z,6.70
2022-10-21T14:29:54.270Z,4.57
2022-10-21T14:32:23.348Z,4.57
2022-10-21T14:35:05.825Z,3.55
2022-10-21T14:37:41.604Z,3.30
2022-10-21T14:40:19.549Z,3.47
2022-10-21T14:42:50.942Z,3.78
2022-10-21T14:45:26.099Z,5.65
2022-10-21T14:47:58.363Z,3.83
2022-10-21T14:50:25.432Z,3.15
2022-10-21T14:52:53.280Z,4.25
2022-10-21T14:55:25.821Z,5.20
2022-10-21T14:57:55.623Z,3.08
2022-10-21T15:00:30.260Z,4.75
2022-10-21T15:02:58.511Z,3.28
2022-10-21T15:05:37.667Z,4.15
2022-10-21T15:08:31.563Z,3.92
2022-10-21T15:11:31.451Z,2.67
2022-10-21T15:14:05.248Z,3.92
2022-10-21T15:19:07.910Z,3.47
2022-10-21T15:21:37.683Z,6.15
2022-10-21T15:24:05.355Z,2.17
2022-10-21T15:26:35.320Z,3.33
2022-10-21T15:29:12.389Z,3.10
2022-10-21T15:31:40.654Z,3.03
2022-10-21T15:34:14.715Z,3.08
2022-10-21T15:36:42.605Z,3.67
2022-10-21T15:39:10.285Z,3.42
2022-10-21T15:41:37.922Z,5.68
2022-10-21T15:44:14.643Z,4.97
2022-10-21T15:46:42.777Z,7.65
2022-10-21T15:49:16.486Z,4.32
2022-10-21T15:51:43.323Z,6.38
2022-10-21T15:54:10.106Z,5.35
2022-10-21T15:56:37.058Z,4.97
2022-10-21T15:59:04.639Z,6.20
2022-10-21T16:01:31.441Z,8.38
2022-10-21T16:03:59.562Z,5.78
2022-10-21T16:06:26.303Z,3.20
2022-10-21T16:08:53.229Z,3.15
2022-10-21T16:11:29.704Z,6.40
2022-10-21T16:14:06.916Z,4.47
2022-10-21T16:16:33.914Z,3.35
2022-10-21T16:19:01.966Z,3.88
2022-10-21T16:21:28.817Z,4.53
2022-10-21T16:23:55.555Z,3.05
2022-10-21T16:26:24.118Z,8.38
2022-10-21T16:28:55.487Z,6.95
2022-10-21T16:31:22.684Z,3.28
2022-10-21T16:33:49.453Z,6.10
2022-10-21T16:36:21.022Z,10.18
2022-10-21T16:38:48.323Z,3.45
2022-10-21T16:41:16.773Z,3.13
2022-10-21T16:43:43.956Z,3.20
2022-10-21T16:46:22.512Z,4.10
2022-10-21T16:48:51.913Z,3.97
2022-10-21T16:51:21.672Z,3.95
2022-10-21T16:53:48.719Z,2.78
2022-10-21T16:56:15.692Z,2.53
2022-10-21T16:58:42.647Z,3.10
2022-10-21T17:01:13.884Z,9.10
2022-10-21T17:03:40.859Z,3.70
2022-10-21T17:06:08.492Z,3.58
2022-10-21T17:08:36.607Z,3.33
2022-10-21T17:11:03.383Z,2.42
2022-10-21T17:13:30.131Z,2.53
2022-10-21T17:15:56.910Z,2.28
2022-10-21T17:18:23.667Z,2.15
2022-10-21T17:20:50.627Z,3.53
2022-10-21T17:23:17.385Z,2.53
2022-10-21T17:25:45.461Z,2.53
2022-10-21T17:28:12.582Z,3.30
2022-10-21T17:30:39.398Z,2.38
2022-10-21T17:33:09.375Z,2.55
2022-10-21T17:35:39.164Z,3.72
2022-10-21T17:38:06.107Z,3.83
2022-10-21T17:40:33.115Z,2.78
2022-10-21T17:43:01.436Z,2.55
2022-10-21T17:45:28.411Z,3.38
2022-10-21T17:47:55.404Z,3.35
2022-10-21T17:50:22.412Z,3.10
2022-10-21T17:52:50.297Z,2.20
2022-10-21T17:55:17.517Z,2.83
2022-10-21T17:57:44.738Z,3.40
2022-10-21T18:00:14.022Z,2.05
2022-10-21T18:02:41.258Z,2.58
2022-10-21T18:05:10.185Z,1.52
2022-10-21T18:07:37.468Z,2.38
2022-10-21T18:10:05.965Z,4.57
2022-10-21T18:12:33.180Z,2.53
2022-10-21T18:15:00.070Z,6.75
2022-10-21T18:17:28.467Z,2.97
2022-10-21T18:19:55.428Z,2.53
2022-10-21T18:22:22.736Z,2.67
2022-10-21T18:24:49.728Z,2.15
2022-10-21T18:27:16.734Z,3.67
2022-10-21T18:29:43.678Z,2.40
2022-10-21T18:32:13.783Z,2.13
2022-10-21T18:34:43.322Z,6.68
2022-10-21T18:37:10.236Z,3.65
2022-10-21T18:39:37.096Z,1.95
2022-10-21T18:42:04.235Z,3.65
2022-10-21T18:44:31.108Z,2.10
2022-10-21T18:46:58.017Z,4.70
2022-10-21T18:49:25.044Z,3.22
2022-10-21T18:51:53.285Z,2.00
2022-10-21T18:54:21.112Z,1.92
2022-10-21T18:56:48.029Z,2.40
2022-10-21T18:59:14.746Z,4.45
2022-10-21T19:01:41.562Z,1.95
2022-10-21T19:04:08.871Z,1.40
2022-10-21T19:06:38.550Z,2.22
2022-10-21T19:09:10.927Z,1.42
2022-10-21T19:11:37.695Z,3.55
2022-10-21T19:14:06.277Z,2.60
2022-10-21T19:16:35.514Z,2.10
2022-10-21T19:19:02.639Z,2.53
2022-10-21T19:21:29.664Z,4.88
2022-10-21T19:23:57.012Z,4.45
2022-10-21T19:26:25.191Z,2.88
2022-10-21T19:28:52.057Z,2.90
2022-10-21T19:31:18.907Z,2.60
2022-10-21T19:33:45.664Z,2.53
2022-10-21T19:36:12.396Z,1.38
2022-10-21T19:38:44.375Z,3.08
2022-10-21T19:41:14.759Z,2.35
2022-10-21T19:43:43.202Z,1.70
2022-10-21T19:46:14.970Z,2.33
2022-10-21T19:48:41.866Z,1.70
2022-10-21T19:51:14.464Z,3.38
2022-10-21T19:53:42.974Z,1.35
2022-10-21T19:56:09.867Z,1.27
2022-10-21T19:58:38.172Z,2.05
2022-10-21T20:01:08.170Z,1.08
2022-10-21T20:03:35.667Z,3.20
2022-10-21T20:06:05.265Z,1.70
2022-10-21T20:08:32.183Z,3.25
2022-10-21T20:11:00.597Z,1.35
2022-10-21T20:13:27.874Z,2.50
2022-10-21T20:15:54.675Z,1.58
2022-10-21T20:18:24.882Z,1.58
2022-10-21T20:20:54.462Z,2.35
2022-10-21T20:23:21.900Z,3.58
2022-10-21T20:25:49.278Z,1.23
2022-10-21T20:28:16.177Z,1.67
2022-10-21T20:30:43.094Z,1.63
2022-10-21T20:33:09.940Z,1.55
2022-10-21T20:35:42.300Z,1.80
2022-10-21T20:38:09.363Z,2.47
2022-10-21T20:40:36.502Z,3.25
2022-10-21T20:43:03.224Z,1.42
2022-10-21T20:45:30.013Z,1.02
2022-10-21T20:47:57.065Z,3.70
2022-10-21T20:50:24.330Z,5.82
2022-10-21T20:52:52.456Z,3.00
2022-10-21T20:55:19.351Z,3.72
2022-10-21T20:57:46.078Z,1.95
2022-10-21T21:00:13.279Z,3.50
2022-10-21T21:02:40.044Z,4.70
2022-10-21T21:05:07.951Z,2.15
2022-10-21T21:07:35.524Z,2.20
2022-10-21T21:10:04.561Z,2.05
2022-10-21T21:12:31.479Z,2.45
2022-10-21T21:14:58.204Z,3.70
2022-10-21T21:17:25.000Z,1.98
2022-10-21T21:19:51.760Z,3.08
2022-10-21T21:22:18.680Z,8.75
2022-10-21T21:24:45.419Z,1.80
2022-10-21T21:27:13.475Z,3.97
2022-10-21T21:29:40.230Z,3.08
2022-10-21T21:32:07.097Z,2.42
2022-10-21T21:34:33.825Z,2.10
2022-10-21T21:37:00.588Z,2.15
2022-10-21T21:39:27.351Z,2.03
2022-10-21T21:41:54.192Z,1.98
2022-10-21T21:44:22.316Z,1.92
2022-10-21T21:46:49.029Z,1.85
2022-10-21T21:49:15.750Z,1.25
2022-10-21T21:51:42.494Z,3.63
2022-10-21T21:54:09.242Z,2.60
2022-10-21T21:56:36.611Z,3.08
2022-10-21T21:59:03.593Z,4.80
2022-10-21T22:01:31.718Z,2.10
2022-10-21T22:03:59.779Z,2.35
2022-10-21T22:06:29.609Z,3.63
2022-10-21T22:08:56.528Z,1.90
2022-10-21T22:11:25.123Z,1.83
2022-10-21T22:13:52.311Z,1.30
2022-10-21T22:16:19.322Z,1.50
2022-10-21T22:18:47.648Z,2.17
2022-10-21T22:21:15.946Z,1.92
2022-10-21T22:23:43.452Z,1.00
2022-10-21T22:26:11.722Z,1.60
2022-10-21T22:28:38.910Z,1.55
2022-10-21T22:31:08.333Z,1.77
2022-10-21T22:33:35.185Z,1.83
2022-10-21T22:36:04.300Z,1.52
2022-10-21T22:38:31.029Z,2.83
2022-10-21T22:40:59.255Z,2.47
2022-10-21T22:43:26.761Z,1.88
2022-10-21T22:46:01.143Z,0.70
2022-10-21T22:48:41.303Z,1.85
2022-10-21T22:51:09.400Z,2.05
2022-10-21T22:53:36.364Z,1.45
2022-10-21T22:56:03.297Z,1.13
2022-10-21T22:58:30.119Z,1.52
2022-10-21T23:00:57.084Z,3.72
2022-10-21T23:03:24.013Z,1.23
2022-10-21T23:05:51.378Z,1.15
2022-10-21T23:08:19.467Z,2.30
2022-10-21T23:10:47.516Z,1.00
2022-10-21T23:13:14.276Z,2.97
2022-10-21T23:15:40.986Z,1.08
2022-10-21T23:18:08.014Z,2.33
2022-10-21T23:20:34.744Z,2.38
2022-10-21T23:23:01.527Z,1.73
2022-10-21T23:25:30.035Z,1.73
2022-10-21T23:27:56.955Z,4.53
2022-10-21T23:30:24.096Z,1.67
2022-10-21T23:32:51.010Z,1.67
2022-10-21T23:35:18.563Z,3.75
2022-10-21T23:37:45.627Z,2.45
2022-10-21T23:40:12.750Z,1.25
2022-10-21T23:42:42.801Z,1.50
2022-10-21T23:45:10.965Z,1.95
2022-10-21T23:47:38.484Z,2.08
2022-10-21T23:50:06.519Z,1.25
2022-10-21T23:52:33.257Z,3.22
2022-10-21T23:55:00.140Z,1.50
2022-10-21T23:57:26.903Z,4.40
2022-10-21T23:59:54.997Z,0.88
